Terminal Aerodrome Forecast
Issued by NWS

Home | Current Version | Previous Version | Text Only | Print | Product List | Glossary On
Versions: 1 2 3 4 5 6 7 8 9 10 11 12 13 14 15 16 17 18 19 20 21
000
FTUS44 KCRP 302137 AAB
TAFALI
TAF AMD
KALI 302137Z 3022/0118 16010KT P6SM VCSH SCT025 BKN140
     FM010100 14007KT P6SM FEW025 BKN120
     FM010900 VRB05KT 4SM BR SCT015
     FM011300 16014KT P6SM VCSH SCT050=

USA.gov is the U.S. government's official web portal to all federal, state and local government web resources and services.